createdAt,value
2022-10-09T00:00:34.667Z,1002.35
2022-10-09T00:01:34.681Z,1002.38
2022-10-09T00:02:34.888Z,1002.38
2022-10-09T00:03:34.693Z,1002.37
2022-10-09T00:04:34.721Z,1002.39
2022-10-09T00:05:35.003Z,1002.40
2022-10-09T00:06:34.789Z,1002.42
2022-10-09T00:07:35.446Z,1002.35
2022-10-09T00:08:34.599Z,1002.45
2022-10-09T00:09:34.833Z,1002.42
2022-10-09T00:10:34.572Z,1002.44
2022-10-09T00:11:34.599Z,1002.44
2022-10-09T00:12:34.892Z,1002.46
2022-10-09T00:13:35.321Z,1002.46
2022-10-09T00:14:34.478Z,1002.51
2022-10-09T00:15:34.670Z,1002.42
2022-10-09T00:16:34.797Z,1002.44
2022-10-09T00:17:34.505Z,1002.40
2022-10-09T00:18:34.553Z,1002.46
2022-10-09T00:19:34.613Z,1002.43
2022-10-09T00:20:34.617Z,1002.44
2022-10-09T00:21:34.467Z,1002.49
2022-10-09T00:22:34.821Z,1002.45
2022-10-09T00:23:34.662Z,1002.48
2022-10-09T00:24:34.527Z,1002.48
2022-10-09T00:25:35.522Z,1002.46
2022-10-09T00:26:34.361Z,1002.52
2022-10-09T00:27:34.366Z,1002.49
2022-10-09T00:28:38.330Z,1002.49
2022-10-09T00:29:35.299Z,1002.50
2022-10-09T00:30:34.356Z,1002.51
2022-10-09T00:31:34.284Z,1002.50
2022-10-09T00:32:34.282Z,1002.55
2022-10-09T00:33:34.270Z,1002.53
2022-10-09T00:34:34.254Z,1002.51
2022-10-09T00:35:34.335Z,1002.47
2022-10-09T00:36:34.523Z,1002.52
2022-10-09T00:37:35.119Z,1002.53
2022-10-09T00:38:34.222Z,1002.56
2022-10-09T00:39:34.187Z,1002.53
2022-10-09T00:40:34.287Z,1002.54
2022-10-09T00:41:34.305Z,1002.56
2022-10-09T00:42:34.345Z,1002.60
2022-10-09T00:43:34.219Z,1002.56
2022-10-09T00:44:34.149Z,1002.55
2022-10-09T00:45:34.124Z,1002.58
2022-10-09T00:46:34.151Z,1002.54
2022-10-09T00:47:34.141Z,1002.49
2022-10-09T00:48:34.067Z,1002.51
2022-10-09T00:49:34.088Z,1002.51
2022-10-09T00:50:34.284Z,1002.52
2022-10-09T00:51:34.178Z,1002.51
2022-10-09T00:52:34.063Z,1002.46
2022-10-09T00:53:34.037Z,1002.55
2022-10-09T00:54:34.071Z,1002.50
2022-10-09T00:55:33.998Z,1002.50
2022-10-09T00:56:34.043Z,1002.49
2022-10-09T00:57:34.046Z,1002.48
2022-10-09T00:58:33.995Z,1002.50
2022-10-09T00:59:34.004Z,1002.53
2022-10-09T01:00:33.964Z,1002.51
2022-10-09T01:01:34.047Z,1002.50
2022-10-09T01:02:34.026Z,1002.54
2022-10-09T01:03:33.931Z,1002.53
2022-10-09T01:04:35.000Z,1002.50
2022-10-09T01:05:33.903Z,1002.50
2022-10-09T01:06:34.001Z,1002.44
2022-10-09T01:07:34.025Z,1002.53
2022-10-09T01:08:34.102Z,1002.54
2022-10-09T01:09:33.991Z,1002.50
2022-10-09T01:10:33.920Z,1002.54
2022-10-09T01:11:34.391Z,1002.56
2022-10-09T01:12:34.268Z,1002.46
2022-10-09T01:13:33.917Z,1002.52
2022-10-09T01:14:33.816Z,1002.52
2022-10-09T01:15:33.945Z,1002.56
2022-10-09T01:16:33.757Z,1002.52
2022-10-09T01:17:33.795Z,1002.54
2022-10-09T01:18:33.812Z,1002.54
2022-10-09T01:19:34.049Z,1002.51
2022-10-09T01:20:33.804Z,1002.48
2022-10-09T01:21:33.868Z,1002.50
2022-10-09T01:22:33.993Z,1002.48
2022-10-09T01:23:33.769Z,1002.46
2022-10-09T01:24:33.794Z,1002.46
2022-10-09T01:25:33.705Z,1002.46
2022-10-09T01:26:33.857Z,1002.46
2022-10-09T01:27:33.671Z,1002.47
2022-10-09T01:28:33.739Z,1002.49
2022-10-09T01:29:33.682Z,1002.54
2022-10-09T01:30:33.755Z,1002.50
2022-10-09T01:31:33.902Z,1002.55
2022-10-09T01:32:33.823Z,1002.44
2022-10-09T01:33:33.778Z,1002.43
2022-10-09T01:34:33.670Z,1002.43
2022-10-09T01:35:33.649Z,1002.43
2022-10-09T01:36:33.697Z,1002.43
2022-10-09T01:37:33.608Z,1002.41
2022-10-09T01:38:33.704Z,1002.40
2022-10-09T01:39:33.754Z,1002.45
2022-10-09T01:40:33.607Z,1002.43
2022-10-09T01:41:33.582Z,1002.47
2022-10-09T01:42:33.665Z,1002.45
2022-10-09T01:43:33.549Z,1002.44
2022-10-09T01:44:33.789Z,1002.46
2022-10-09T01:45:33.549Z,1002.42
2022-10-09T01:46:33.688Z,1002.43
2022-10-09T01:47:33.497Z,1002.44
2022-10-09T01:48:33.546Z,1002.32
2022-10-09T01:49:33.688Z,1002.34
2022-10-09T01:50:33.683Z,1002.33
2022-10-09T01:51:33.753Z,1002.37
2022-10-09T01:52:33.579Z,1002.38
2022-10-09T01:53:33.454Z,1002.34
2022-10-09T01:54:33.888Z,1002.34
2022-10-09T01:55:33.498Z,1002.30
2022-10-09T01:56:33.479Z,1002.36
2022-10-09T01:57:33.726Z,1002.43
2022-10-09T01:58:33.660Z,1002.24
2022-10-09T01:59:33.340Z,1002.33
2022-10-09T02:00:33.414Z,1002.29
2022-10-09T02:01:33.320Z,1002.28
2022-10-09T02:02:33.430Z,1002.32
2022-10-09T02:03:33.354Z,1002.27
2022-10-09T02:04:33.247Z,1002.30
2022-10-09T02:05:33.219Z,1002.30
2022-10-09T02:06:33.242Z,1002.32
2022-10-09T02:07:33.286Z,1002.27
2022-10-09T02:08:33.631Z,1002.30
2022-10-09T02:09:34.306Z,1002.31
2022-10-09T02:10:33.559Z,1002.35
2022-10-09T02:11:33.239Z,1002.28
2022-10-09T02:12:34.003Z,1002.29
2022-10-09T02:13:34.067Z,1002.32
2022-10-09T02:15:05.565Z,1002.26
2022-10-09T02:15:33.446Z,1002.30
2022-10-09T02:16:37.041Z,1002.31
2022-10-09T02:17:34.107Z,1002.32
2022-10-09T02:18:33.291Z,1002.35
2022-10-09T02:19:33.111Z,1002.30
2022-10-09T02:20:33.107Z,1002.39
2022-10-09T02:21:33.059Z,1002.41
2022-10-09T02:22:33.047Z,1002.36
2022-10-09T02:24:00.615Z,1002.42
2022-10-09T02:24:33.345Z,1002.44
2022-10-09T02:25:33.099Z,1002.45
2022-10-09T02:26:32.989Z,1002.41
2022-10-09T02:27:33.004Z,1002.38
2022-10-09T02:28:33.018Z,1002.32
2022-10-09T02:29:32.963Z,1002.39
2022-10-09T02:30:33.044Z,1002.33
2022-10-09T02:31:32.991Z,1002.38
2022-10-09T02:32:32.966Z,1002.40
2022-10-09T02:33:33.120Z,1002.37
2022-10-09T02:34:33.044Z,1002.38
2022-10-09T02:35:32.988Z,1002.37
2022-10-09T02:36:32.962Z,1002.40
2022-10-09T02:37:32.875Z,1002.41
2022-10-09T02:38:32.879Z,1002.39
2022-10-09T02:39:32.844Z,1002.38
2022-10-09T02:40:32.853Z,1002.38
2022-10-09T02:41:33.641Z,1002.43
2022-10-09T02:42:33.647Z,1002.30
2022-10-09T02:43:32.812Z,1002.33
2022-10-09T02:44:32.820Z,1002.34
2022-10-09T02:45:32.858Z,1002.35
2022-10-09T02:46:33.802Z,1002.31
2022-10-09T02:47:32.968Z,1002.34
2022-10-09T02:48:32.869Z,1002.37
2022-10-09T02:49:32.876Z,1002.33
2022-10-09T02:50:32.781Z,1002.37
2022-10-09T02:51:32.748Z,1002.39
2022-10-09T02:52:32.696Z,1002.41
2022-10-09T02:53:32.692Z,1002.37
2022-10-09T02:54:32.701Z,1002.37
2022-10-09T02:55:32.685Z,1002.39
2022-10-09T02:56:37.944Z,1002.43
2022-10-09T02:57:34.668Z,1002.39
2022-10-09T02:58:32.650Z,1002.37
2022-10-09T02:59:32.662Z,1002.44
2022-10-09T03:00:32.657Z,1002.36
2022-10-09T03:01:32.685Z,1002.34
2022-10-09T03:02:32.663Z,1002.43
2022-10-09T03:03:32.615Z,1002.44
2022-10-09T03:04:32.570Z,1002.34
2022-10-09T03:05:32.575Z,1002.39
2022-10-09T03:06:32.596Z,1002.41
2022-10-09T03:07:32.589Z,1002.40
2022-10-09T03:08:32.533Z,1002.45
2022-10-09T03:09:33.844Z,1002.51
2022-10-09T03:10:33.532Z,1002.44
2022-10-09T03:11:32.501Z,1002.49
2022-10-09T03:12:32.585Z,1002.51
2022-10-09T03:13:32.460Z,1002.43
2022-10-09T03:14:32.509Z,1002.45
2022-10-09T03:15:32.489Z,1002.42
2022-10-09T03:16:32.494Z,1002.39
2022-10-09T03:17:32.434Z,1002.41
2022-10-09T03:18:32.470Z,1002.44
2022-10-09T03:19:32.734Z,1002.38
2022-10-09T03:20:32.397Z,1002.44
2022-10-09T03:21:32.386Z,1002.42
2022-10-09T03:22:32.602Z,1002.41
2022-10-09T03:23:32.513Z,1002.36
2022-10-09T03:24:32.469Z,1002.36
2022-10-09T03:25:32.374Z,1002.36
2022-10-09T03:26:32.384Z,1002.35
2022-10-09T03:27:32.373Z,1002.42
2022-10-09T03:28:32.392Z,1002.42
2022-10-09T03:29:32.305Z,1002.39
2022-10-09T03:30:32.303Z,1002.44
2022-10-09T03:31:52.538Z,1002.46
2022-10-09T03:32:34.314Z,1002.44
2022-10-09T03:33:32.362Z,1002.44
2022-10-09T03:34:32.378Z,1002.42
2022-10-09T03:35:32.369Z,1002.40
2022-10-09T03:36:32.257Z,1002.43
2022-10-09T03:37:32.239Z,1002.39
2022-10-09T03:38:32.238Z,1002.43
2022-10-09T03:39:32.219Z,1002.42
2022-10-09T03:40:32.333Z,1002.48
2022-10-09T03:41:32.173Z,1002.51
2022-10-09T03:42:32.190Z,1002.55
2022-10-09T03:43:32.371Z,1002.52
2022-10-09T03:44:32.211Z,1002.49
2022-10-09T03:45:32.170Z,1002.50
2022-10-09T03:46:32.223Z,1002.53
2022-10-09T03:47:32.087Z,1002.51
2022-10-09T03:48:32.224Z,1002.53
2022-10-09T03:49:33.280Z,1002.50
2022-10-09T03:50:32.131Z,1002.57
2022-10-09T03:51:32.135Z,1002.51
2022-10-09T03:52:32.160Z,1002.57
2022-10-09T03:53:32.114Z,1002.61
2022-10-09T03:54:32.051Z,1002.56
2022-10-09T03:55:32.118Z,1002.62
2022-10-09T03:56:32.072Z,1002.55
2022-10-09T03:57:32.035Z,1002.59
2022-10-09T03:58:32.189Z,1002.55
2022-10-09T03:59:32.092Z,1002.52
2022-10-09T04:00:32.014Z,1002.52
2022-10-09T04:01:31.989Z,1002.54
2022-10-09T04:02:32.158Z,1002.57
2022-10-09T04:03:31.971Z,1002.60
2022-10-09T04:04:31.970Z,1002.58
2022-10-09T04:05:31.933Z,1002.62
2022-10-09T04:06:31.928Z,1002.66
2022-10-09T04:07:31.936Z,1002.61
2022-10-09T04:08:31.973Z,1002.64
2022-10-09T04:09:32.126Z,1002.67
2022-10-09T04:10:31.876Z,1002.69
2022-10-09T04:11:31.840Z,1002.73
2022-10-09T04:12:32.326Z,1002.66
2022-10-09T04:13:32.117Z,1002.60
2022-10-09T04:14:32.361Z,1002.66
2022-10-09T04:15:31.805Z,1002.69
2022-10-09T04:16:31.844Z,1002.67
2022-10-09T04:17:31.769Z,1002.68
2022-10-09T04:18:31.802Z,1002.63
2022-10-09T04:19:31.777Z,1002.68
2022-10-09T04:20:32.617Z,1002.63
2022-10-09T04:21:32.019Z,1002.65
2022-10-09T04:22:31.714Z,1002.61
2022-10-09T04:23:31.733Z,1002.65
2022-10-09T04:24:31.701Z,1002.66
2022-10-09T04:25:32.005Z,1002.67
2022-10-09T04:26:31.753Z,1002.67
2022-10-09T04:27:32.845Z,1002.65
2022-10-09T04:28:31.831Z,1002.68
2022-10-09T04:29:32.197Z,1002.69
2022-10-09T04:30:31.717Z,1002.66
2022-10-09T04:31:31.792Z,1002.58
2022-10-09T04:32:31.709Z,1002.66
2022-10-09T04:33:31.601Z,1002.62
2022-10-09T04:34:31.998Z,1002.66
2022-10-09T04:35:31.850Z,1002.64
2022-10-09T04:36:31.752Z,1002.67
2022-10-09T04:37:31.799Z,1002.64
2022-10-09T04:38:31.530Z,1002.63
2022-10-09T04:39:31.954Z,1002.68
2022-10-09T04:40:32.110Z,1002.67
2022-10-09T04:41:34.745Z,1002.70
2022-10-09T04:42:31.926Z,1002.62
2022-10-09T04:43:31.812Z,1002.68
2022-10-09T04:44:31.520Z,1002.63
2022-10-09T04:45:31.609Z,1002.57
2022-10-09T04:46:31.570Z,1002.58
2022-10-09T04:47:31.451Z,1002.57
2022-10-09T04:48:31.478Z,1002.61
2022-10-09T04:49:31.390Z,1002.59
2022-10-09T04:50:31.453Z,1002.54
2022-10-09T04:51:31.535Z,1002.58
2022-10-09T04:52:31.538Z,1002.53
2022-10-09T04:53:31.473Z,1002.51
2022-10-09T04:54:31.556Z,1002.52
2022-10-09T04:55:32.614Z,1002.41
2022-10-09T04:56:31.487Z,1002.57
2022-10-09T04:57:31.451Z,1002.55
2022-10-09T04:58:31.395Z,1002.56
2022-10-09T04:59:31.327Z,1002.54
2022-10-09T05:00:31.632Z,1002.49
2022-10-09T05:01:37.064Z,1002.57
2022-10-09T05:02:32.341Z,1002.52
2022-10-09T05:03:31.409Z,1002.50
2022-10-09T05:04:31.259Z,1002.51
2022-10-09T05:05:31.238Z,1002.51
2022-10-09T05:06:31.247Z,1002.46
2022-10-09T05:07:31.304Z,1002.47
2022-10-09T05:08:31.725Z,1002.48
2022-10-09T05:09:31.991Z,1002.47
2022-10-09T05:10:31.315Z,1002.48
2022-10-09T05:11:31.243Z,1002.50
2022-10-09T05:12:31.166Z,1002.43
2022-10-09T05:13:31.438Z,1002.46
2022-10-09T05:14:31.166Z,1002.41
2022-10-09T05:15:31.151Z,1002.45
2022-10-09T05:16:31.180Z,1002.47
2022-10-09T05:17:31.269Z,1002.47
2022-10-09T05:18:31.089Z,1002.44
2022-10-09T05:19:31.649Z,1002.45
2022-10-09T05:20:31.510Z,1002.43
2022-10-09T05:21:31.776Z,1002.44
2022-10-09T05:22:31.167Z,1002.48
2022-10-09T05:23:31.104Z,1002.46
2022-10-09T05:24:31.044Z,1002.44
2022-10-09T05:25:31.317Z,1002.46
2022-10-09T05:26:31.006Z,1002.47
2022-10-09T05:27:31.126Z,1002.53
2022-10-09T05:28:31.233Z,1002.50
2022-10-09T05:29:31.001Z,1002.51
2022-10-09T05:30:31.030Z,1002.46
2022-10-09T05:31:31.241Z,1002.51
2022-10-09T05:32:31.204Z,1002.49
2022-10-09T05:33:31.001Z,1002.50
2022-10-09T05:34:30.917Z,1002.54
2022-10-09T05:35:30.933Z,1002.51
2022-10-09T05:36:31.938Z,1002.45
2022-10-09T05:37:30.921Z,1002.52
2022-10-09T05:38:30.909Z,1002.48
2022-10-09T05:39:31.664Z,1002.55
2022-10-09T05:40:31.482Z,1002.57
2022-10-09T05:41:31.380Z,1002.48
2022-10-09T05:42:31.188Z,1002.52
2022-10-09T05:43:31.561Z,1002.46
2022-10-09T05:44:31.797Z,1002.54
2022-10-09T05:45:31.431Z,1002.52
2022-10-09T05:46:31.461Z,1002.50
2022-10-09T05:47:31.381Z,1002.48
2022-10-09T05:48:31.385Z,1002.50
2022-10-09T05:49:32.491Z,1002.46
2022-10-09T05:50:30.785Z,1002.49
2022-10-09T05:51:30.766Z,1002.52
2022-10-09T05:52:30.774Z,1002.45
2022-10-09T05:53:30.729Z,1002.45
2022-10-09T05:54:30.725Z,1002.46
2022-10-09T05:55:30.750Z,1002.43
2022-10-09T05:56:30.678Z,1002.45
2022-10-09T05:57:30.700Z,1002.45
2022-10-09T05:58:31.709Z,1002.45
2022-10-09T05:59:30.679Z,1002.51
2022-10-09T06:00:30.687Z,1002.46
2022-10-09T06:01:30.714Z,1002.52
2022-10-09T06:02:30.709Z,1002.51
2022-10-09T06:03:30.618Z,1002.50
2022-10-09T06:04:30.611Z,1002.45
2022-10-09T06:05:31.628Z,1002.49
2022-10-09T06:06:30.597Z,1002.48
2022-10-09T06:07:30.633Z,1002.47
2022-10-09T06:08:30.595Z,1002.44
2022-10-09T06:09:30.538Z,1002.54
2022-10-09T06:10:32.724Z,1002.53
2022-10-09T06:11:30.558Z,1002.52
2022-10-09T06:12:31.571Z,1002.51
2022-10-09T06:13:30.531Z,1002.44
2022-10-09T06:14:30.529Z,1002.53
2022-10-09T06:15:30.524Z,1002.53
2022-10-09T06:16:30.559Z,1002.48
2022-10-09T06:17:30.478Z,1002.56
2022-10-09T06:18:30.471Z,1002.54
2022-10-09T06:19:30.478Z,1002.53
2022-10-09T06:20:31.111Z,1002.64
2022-10-09T06:21:30.451Z,1002.61
2022-10-09T06:22:30.431Z,1002.56
2022-10-09T06:23:30.426Z,1002.60
2022-10-09T06:24:30.395Z,1002.59
2022-10-09T06:25:30.434Z,1002.66
2022-10-09T06:26:30.467Z,1002.62
2022-10-09T06:27:30.383Z,1002.61
2022-10-09T06:28:30.606Z,1002.60
2022-10-09T06:29:30.915Z,1002.65
2022-10-09T06:30:32.862Z,1002.64
2022-10-09T06:31:31.307Z,1002.58
2022-10-09T06:32:30.299Z,1002.65
2022-10-09T06:33:30.316Z,1002.68
2022-10-09T06:34:30.351Z,1002.65
2022-10-09T06:35:30.296Z,1002.63
2022-10-09T06:36:30.301Z,1002.71
2022-10-09T06:37:30.259Z,1002.69
2022-10-09T06:38:30.244Z,1002.69
2022-10-09T06:39:30.258Z,1002.67
2022-10-09T06:40:30.248Z,1002.68
2022-10-09T06:41:30.208Z,1002.73
2022-10-09T06:42:30.195Z,1002.70
2022-10-09T06:43:30.240Z,1002.64
2022-10-09T06:44:30.244Z,1002.77
2022-10-09T06:45:30.144Z,1002.79
2022-10-09T06:46:30.273Z,1002.74
2022-10-09T06:47:30.160Z,1002.75
2022-10-09T06:48:30.172Z,1002.72
2022-10-09T06:49:30.121Z,1002.72
2022-10-09T06:50:31.097Z,1002.74
2022-10-09T06:51:30.120Z,1002.64
2022-10-09T06:52:30.076Z,1002.72
2022-10-09T06:53:30.077Z,1002.74
2022-10-09T06:54:30.068Z,1002.82
2022-10-09T06:55:30.051Z,1002.75
2022-10-09T06:56:30.032Z,1002.76
2022-10-09T06:57:30.037Z,1002.81
2022-10-09T06:58:30.077Z,1002.78
2022-10-09T06:59:29.997Z,1002.83
2022-10-09T07:00:29.998Z,1002.86
2022-10-09T07:01:30.236Z,1002.83
2022-10-09T07:02:30.257Z,1002.81
2022-10-09T07:03:30.033Z,1002.85
2022-10-09T07:04:29.968Z,1002.82
2022-10-09T07:05:30.026Z,1002.79
2022-10-09T07:06:29.920Z,1002.89
2022-10-09T07:07:31.017Z,1002.84
2022-10-09T07:08:29.993Z,1002.85
2022-10-09T07:09:29.897Z,1002.85
2022-10-09T07:10:29.868Z,1002.85
2022-10-09T07:11:30.118Z,1002.90
2022-10-09T07:12:29.849Z,1002.88
2022-10-09T07:13:29.867Z,1002.85
2022-10-09T07:14:29.837Z,1002.87
2022-10-09T07:15:30.016Z,1002.90
2022-10-09T07:16:29.956Z,1002.89
2022-10-09T07:17:29.920Z,1002.88
2022-10-09T07:18:29.785Z,1002.86
2022-10-09T07:19:30.303Z,1002.85
2022-10-09T07:20:29.850Z,1002.87
2022-10-09T07:21:29.769Z,1002.93
2022-10-09T07:22:29.733Z,1002.89
2022-10-09T07:23:29.806Z,1002.89
2022-10-09T07:24:29.946Z,1002.93
2022-10-09T07:25:29.740Z,1002.87
2022-10-09T07:26:29.755Z,1002.86
2022-10-09T07:27:29.750Z,1002.88
2022-10-09T07:28:29.781Z,1002.90
2022-10-09T07:29:29.770Z,1003.00
2022-10-09T07:30:29.832Z,1002.97
2022-10-09T07:31:29.767Z,1002.98
2022-10-09T07:32:29.778Z,1002.98
2022-10-09T07:33:29.633Z,1003.00
2022-10-09T07:34:29.611Z,1002.97
2022-10-09T07:35:30.151Z,1002.95
2022-10-09T07:36:29.599Z,1002.94
2022-10-09T07:37:29.583Z,1002.95
2022-10-09T07:38:29.606Z,1002.98
2022-10-09T07:39:29.554Z,1002.95
2022-10-09T07:40:29.721Z,1002.94
2022-10-09T07:41:29.555Z,1003.00
2022-10-09T07:42:29.551Z,1003.04
2022-10-09T07:43:29.726Z,1002.98
2022-10-09T07:44:29.747Z,1003.02
2022-10-09T07:45:30.120Z,1002.96
2022-10-09T07:46:33.478Z,1002.97
2022-10-09T07:47:31.303Z,1002.96
2022-10-09T07:48:29.546Z,1002.96
2022-10-09T07:49:29.459Z,1003.05
2022-10-09T07:50:29.681Z,1003.03
2022-10-09T07:51:29.477Z,1003.07
2022-10-09T07:52:29.412Z,1003.00
2022-10-09T07:53:33.738Z,1003.04
2022-10-09T07:54:30.445Z,1003.04
2022-10-09T07:55:29.399Z,1003.02
2022-10-09T07:56:29.463Z,1003.01
2022-10-09T07:57:29.459Z,1002.99
2022-10-09T07:58:29.485Z,1002.90
2022-10-09T07:59:29.428Z,1002.91
2022-10-09T08:00:29.446Z,1002.92
2022-10-09T08:01:29.514Z,1002.93
2022-10-09T08:02:29.540Z,1002.95
2022-10-09T08:03:29.377Z,1002.99
2022-10-09T08:04:29.421Z,1002.95
2022-10-09T08:05:29.329Z,1002.91
2022-10-09T08:06:29.448Z,1002.90
2022-10-09T08:07:34.104Z,1002.87
2022-10-09T08:08:31.388Z,1002.87
2022-10-09T08:09:29.426Z,1002.88
2022-10-09T08:10:29.332Z,1002.85
2022-10-09T08:11:29.295Z,1002.86
2022-10-09T08:12:29.258Z,1002.86
2022-10-09T08:13:29.223Z,1002.84
2022-10-09T08:14:29.172Z,1002.88
2022-10-09T08:15:29.232Z,1002.82
2022-10-09T08:16:29.148Z,1002.84
2022-10-09T08:17:29.168Z,1002.81
2022-10-09T08:18:30.002Z,1002.83
2022-10-09T08:19:29.204Z,1002.78
2022-10-09T08:20:29.197Z,1002.79
2022-10-09T08:21:29.198Z,1002.78
2022-10-09T08:22:29.176Z,1002.76
2022-10-09T08:23:29.222Z,1002.79
2022-10-09T08:24:29.145Z,1002.79
2022-10-09T08:25:29.264Z,1002.75
2022-10-09T08:26:29.031Z,1002.75
2022-10-09T08:27:29.086Z,1002.66
2022-10-09T08:28:29.013Z,1002.73
2022-10-09T08:29:29.121Z,1002.74
2022-10-09T08:30:29.072Z,1002.71
2022-10-09T08:31:29.178Z,1002.68
2022-10-09T08:32:28.984Z,1002.72
2022-10-09T08:33:29.042Z,1002.71
2022-10-09T08:34:28.998Z,1002.66
2022-10-09T08:35:33.689Z,1002.73
2022-10-09T08:36:30.927Z,1002.75
2022-10-09T08:37:28.993Z,1002.73
2022-10-09T08:38:46.818Z,1002.70
2022-10-09T08:39:30.910Z,1002.69
2022-10-09T08:40:28.904Z,1002.73
2022-10-09T08:41:28.908Z,1002.71
2022-10-09T08:42:28.922Z,1002.70
2022-10-09T08:43:29.488Z,1002.75
2022-10-09T08:44:28.914Z,1002.64
2022-10-09T08:45:28.916Z,1002.64
2022-10-09T08:46:28.975Z,1002.64
2022-10-09T08:47:28.883Z,1002.55
2022-10-09T08:48:28.881Z,1002.59
2022-10-09T08:49:28.814Z,1002.53
2022-10-09T08:50:28.774Z,1002.57
2022-10-09T08:51:28.792Z,1002.51
2022-10-09T08:52:28.860Z,1002.56
2022-10-09T08:53:28.754Z,1002.52
2022-10-09T08:54:28.740Z,1002.54
2022-10-09T08:55:28.746Z,1002.55
2022-10-09T08:56:28.702Z,1002.51
2022-10-09T08:57:28.735Z,1002.51
2022-10-09T08:58:28.671Z,1002.44
2022-10-09T08:59:28.759Z,1002.47
2022-10-09T09:00:28.732Z,1002.47
2022-10-09T09:01:28.713Z,1002.47
2022-10-09T09:02:28.742Z,1002.49
2022-10-09T09:03:28.617Z,1002.42
2022-10-09T09:04:28.776Z,1002.42
2022-10-09T09:05:28.721Z,1002.43
2022-10-09T09:06:28.687Z,1002.36
2022-10-09T09:07:28.591Z,1002.36
2022-10-09T09:08:28.558Z,1002.38
2022-10-09T09:09:28.538Z,1002.38
2022-10-09T09:10:28.589Z,1002.32
2022-10-09T09:11:28.526Z,1002.30
2022-10-09T09:12:28.523Z,1002.38
2022-10-09T09:13:28.526Z,1002.35
2022-10-09T09:14:28.549Z,1002.33
2022-10-09T09:15:28.471Z,1002.36
2022-10-09T09:16:28.546Z,1002.32
2022-10-09T09:17:28.479Z,1002.34
2022-10-09T09:18:28.459Z,1002.35
2022-10-09T09:19:28.754Z,1002.29
2022-10-09T09:20:28.387Z,1002.30
2022-10-09T09:21:28.499Z,1002.28
2022-10-09T09:22:28.527Z,1002.31
2022-10-09T09:23:28.479Z,1002.30
2022-10-09T09:24:28.511Z,1002.31
2022-10-09T09:25:28.463Z,1002.30
2022-10-09T09:26:28.423Z,1002.19
2022-10-09T09:27:28.464Z,1002.23
2022-10-09T09:28:28.398Z,1002.27
2022-10-09T09:29:28.375Z,1002.25
2022-10-09T09:30:28.336Z,1002.26
2022-10-09T09:31:28.388Z,1002.27
2022-10-09T09:32:28.532Z,1002.20
2022-10-09T09:33:30.521Z,1002.23
2022-10-09T09:34:28.332Z,1002.24
2022-10-09T09:35:28.412Z,1002.21
2022-10-09T09:36:28.264Z,1002.17
2022-10-09T09:37:28.605Z,1002.14
2022-10-09T09:38:28.352Z,1002.10
2022-10-09T09:40:38.558Z,1002.10
2022-10-09T09:41:30.201Z,1002.08
2022-10-09T09:42:28.180Z,1002.03
2022-10-09T09:43:29.119Z,1002.01
2022-10-09T09:44:28.156Z,1002.06
2022-10-09T09:45:28.184Z,1002.04
2022-10-09T09:46:29.089Z,1002.05
2022-10-09T09:47:28.173Z,1002.07
2022-10-09T09:48:28.277Z,1002.02
2022-10-09T09:49:28.116Z,1002.00
2022-10-09T09:50:45.993Z,1002.02
2022-10-09T09:51:30.285Z,1001.99
2022-10-09T09:52:29.098Z,1001.99
2022-10-09T09:53:28.077Z,1001.93
2022-10-09T09:54:28.049Z,1001.96
2022-10-09T09:55:28.000Z,1001.94
2022-10-09T09:56:28.013Z,1001.91
2022-10-09T09:57:28.092Z,1001.88
2022-10-09T09:58:28.608Z,1001.91
2022-10-09T09:59:28.033Z,1001.91
2022-10-09T10:00:28.038Z,1001.93
2022-10-09T10:01:27.977Z,1001.84
2022-10-09T10:02:28.110Z,1001.86
2022-10-09T10:03:27.922Z,1001.88
2022-10-09T10:04:27.954Z,1001.91
2022-10-09T10:05:27.954Z,1001.87
2022-10-09T10:06:27.893Z,1001.82
2022-10-09T10:07:27.943Z,1001.80
2022-10-09T10:08:27.955Z,1001.84
2022-10-09T10:09:28.062Z,1001.81
2022-10-09T10:10:27.932Z,1001.76
2022-10-09T10:11:28.054Z,1001.76
2022-10-09T10:12:27.913Z,1001.73
2022-10-09T10:13:27.852Z,1001.79
2022-10-09T10:14:27.821Z,1001.72
2022-10-09T10:15:27.902Z,1001.76
2022-10-09T10:16:27.917Z,1001.77
2022-10-09T10:17:27.800Z,1001.74
2022-10-09T10:18:27.902Z,1001.79
2022-10-09T10:19:27.820Z,1001.76
2022-10-09T10:20:27.901Z,1001.77
2022-10-09T10:21:27.917Z,1001.71
2022-10-09T10:22:27.822Z,1001.69
2022-10-09T10:23:27.774Z,1001.68
2022-10-09T10:24:27.854Z,1001.66
2022-10-09T10:25:27.798Z,1001.73
2022-10-09T10:26:27.862Z,1001.59
2022-10-09T10:27:27.698Z,1001.67
2022-10-09T10:28:27.855Z,1001.63
2022-10-09T10:29:27.657Z,1001.66
2022-10-09T10:30:27.771Z,1001.64
2022-10-09T10:31:27.751Z,1001.61
2022-10-09T10:32:27.617Z,1001.58
2022-10-09T10:33:27.642Z,1001.53
2022-10-09T10:34:27.602Z,1001.51
2022-10-09T10:35:27.647Z,1001.54
2022-10-09T10:36:27.830Z,1001.51
2022-10-09T10:37:27.603Z,1001.42
2022-10-09T10:38:27.546Z,1001.46
2022-10-09T10:39:27.574Z,1001.43
2022-10-09T10:40:27.571Z,1001.45
2022-10-09T10:41:27.615Z,1001.38
2022-10-09T10:42:27.704Z,1001.43
2022-10-09T10:43:27.584Z,1001.42
2022-10-09T10:44:27.951Z,1001.40
2022-10-09T10:45:27.656Z,1001.31
2022-10-09T10:46:27.518Z,1001.29
2022-10-09T10:47:27.539Z,1001.32
2022-10-09T10:48:27.651Z,1001.26
2022-10-09T10:49:31.653Z,1001.30
2022-10-09T10:50:28.513Z,1001.27
2022-10-09T10:51:27.516Z,1001.29
2022-10-09T10:52:27.436Z,1001.21
2022-10-09T10:53:27.541Z,1001.26
2022-10-09T10:54:27.418Z,1001.20
2022-10-09T10:55:27.388Z,1001.23
2022-10-09T10:56:27.330Z,1001.19
2022-10-09T10:57:27.415Z,1001.22
2022-10-09T10:58:27.383Z,1001.20
2022-10-09T10:59:27.350Z,1001.18
2022-10-09T11:00:27.301Z,1001.17
2022-10-09T11:01:27.611Z,1001.18
2022-10-09T11:02:27.499Z,1001.08
2022-10-09T11:03:27.636Z,1001.10
2022-10-09T11:04:27.248Z,1001.10
2022-10-09T11:05:27.340Z,1001.03
2022-10-09T11:06:27.264Z,1001.11
2022-10-09T11:07:27.280Z,1001.05
2022-10-09T11:08:27.260Z,1000.99
2022-10-09T11:09:27.362Z,1001.00
2022-10-09T11:10:27.230Z,1001.01
2022-10-09T11:11:27.174Z,1000.98
2022-10-09T11:12:46.733Z,1000.97
2022-10-09T11:13:29.216Z,1000.96
2022-10-09T11:14:27.170Z,1000.92
2022-10-09T11:15:27.302Z,1000.94
2022-10-09T11:16:27.186Z,1000.96
2022-10-09T11:17:27.158Z,1000.92
2022-10-09T11:18:27.137Z,1000.85
2022-10-09T11:19:27.077Z,1000.90
2022-10-09T11:20:27.112Z,1000.84
2022-10-09T11:21:27.180Z,1000.78
2022-10-09T11:22:27.136Z,1000.77
2022-10-09T11:23:27.118Z,1000.82
2022-10-09T11:24:27.029Z,1000.79
2022-10-09T11:25:27.045Z,1000.74
2022-10-09T11:26:27.958Z,1000.74
2022-10-09T11:27:27.294Z,1000.71
2022-10-09T11:28:27.082Z,1000.70
2022-10-09T11:29:27.057Z,1000.63
2022-10-09T11:30:26.937Z,1000.58
2022-10-09T11:31:27.027Z,1000.58
2022-10-09T11:32:26.991Z,1000.54
2022-10-09T11:33:26.947Z,1000.57
2022-10-09T11:34:26.930Z,1000.54
2022-10-09T11:35:27.033Z,1000.44
2022-10-09T11:36:26.859Z,1000.43
2022-10-09T11:37:26.881Z,1000.43
2022-10-09T11:38:26.925Z,1000.41
2022-10-09T11:39:26.942Z,1000.35
2022-10-09T11:40:26.894Z,1000.41
2022-10-09T11:41:26.836Z,1000.43
2022-10-09T11:42:26.838Z,1000.39
2022-10-09T11:43:26.811Z,1000.41
2022-10-09T11:44:26.802Z,1000.42
2022-10-09T11:45:26.846Z,1000.42
2022-10-09T11:46:26.774Z,1000.39
2022-10-09T11:47:26.729Z,1000.32
2022-10-09T11:48:26.728Z,1000.40
2022-10-09T11:49:26.815Z,1000.28
2022-10-09T11:50:26.697Z,1000.26
2022-10-09T11:51:26.888Z,1000.24
2022-10-09T11:52:26.726Z,1000.19
2022-10-09T11:53:26.676Z,1000.13
2022-10-09T11:54:26.790Z,1000.15
2022-10-09T11:55:26.799Z,1000.10
2022-10-09T11:56:26.821Z,1000.13
2022-10-09T11:57:26.663Z,1000.12
2022-10-09T11:58:26.615Z,1000.12
2022-10-09T11:59:26.629Z,1000.07
2022-10-09T12:00:26.647Z,1000.05
2022-10-09T12:01:26.622Z,1000.09
2022-10-09T12:02:26.605Z,999.98
2022-10-09T12:03:26.600Z,1000.00
2022-10-09T12:04:43.227Z,1000.02
2022-10-09T12:05:28.559Z,999.89
2022-10-09T12:06:26.675Z,999.91